sensor_id;sensor_type;location;lat;lon;timestamp;P1;durP1;ratioP1;P2;durP2;ratioP2
71975;SDS011;68326;52.124;5.424;2023-07-30T00:00:44;3.35;;;0.80;;
71975;SDS011;68326;52.124;5.424;2023-07-30T00:03:11;4.60;;;1.15;;
71975;SDS011;68326;52.124;5.424;2023-07-30T00:05:37;3.30;;;0.85;;
71975;SDS011;68326;52.124;5.424;2023-07-30T00:08:04;3.58;;;0.70;;
71975;SDS011;68326;52.124;5.424;2023-07-30T00:10:30;6.50;;;0.60;;
71975;SDS011;68326;52.124;5.424;2023-07-30T00:12:57;5.25;;;0.80;;
71975;SDS011;68326;52.124;5.424;2023-07-30T00:15:23;3.70;;;0.70;;
71975;SDS011;68326;52.124;5.424;2023-07-30T00:17:50;4.47;;;1.17;;
71975;SDS011;68326;52.124;5.424;2023-07-30T00:20:16;2.47;;;0.68;;
71975;SDS011;68326;52.124;5.424;2023-07-30T00:22:43;4.03;;;0.93;;
71975;SDS011;68326;52.124;5.424;2023-07-30T00:25:10;4.88;;;0.70;;
71975;SDS011;68326;52.124;5.424;2023-07-30T00:27:36;4.72;;;0.68;;
71975;SDS011;68326;52.124;5.424;2023-07-30T00:30:03;4.28;;;1.20;;
71975;SDS011;68326;52.124;5.424;2023-07-30T00:32:29;7.03;;;0.75;;
71975;SDS011;68326;52.124;5.424;2023-07-30T00:34:56;4.47;;;0.90;;
71975;SDS011;68326;52.124;5.424;2023-07-30T00:37:22;6.68;;;0.73;;
71975;SDS011;68326;52.124;5.424;2023-07-30T00:39:49;3.83;;;0.80;;
71975;SDS011;68326;52.124;5.424;2023-07-30T00:42:15;5.03;;;0.75;;
71975;SDS011;68326;52.124;5.424;2023-07-30T00:44:42;4.25;;;0.80;;
71975;SDS011;68326;52.124;5.424;2023-07-30T00:47:08;3.87;;;0.70;;
71975;SDS011;68326;52.124;5.424;2023-07-30T00:49:35;4.10;;;0.70;;
71975;SDS011;68326;52.124;5.424;2023-07-30T00:52:02;7.35;;;0.80;;
71975;SDS011;68326;52.124;5.424;2023-07-30T00:54:30;7.13;;;1.50;;
71975;SDS011;68326;52.124;5.424;2023-07-30T00:56:57;3.05;;;0.55;;
71975;SDS011;68326;52.124;5.424;2023-07-30T00:59:23;6.40;;;1.33;;
71975;SDS011;68326;52.124;5.424;2023-07-30T01:01:51;4.45;;;1.17;;
71975;SDS011;68326;52.124;5.424;2023-07-30T01:04:18;6.63;;;1.00;;
71975;SDS011;68326;52.124;5.424;2023-07-30T01:06:45;5.22;;;1.00;;
71975;SDS011;68326;52.124;5.424;2023-07-30T01:09:12;5.18;;;0.80;;
71975;SDS011;68326;52.124;5.424;2023-07-30T01:11:39;4.47;;;0.83;;
71975;SDS011;68326;52.124;5.424;2023-07-30T01:14:07;6.95;;;1.70;;
71975;SDS011;68326;52.124;5.424;2023-07-30T01:16:35;5.55;;;0.88;;
71975;SDS011;68326;52.124;5.424;2023-07-30T01:19:02;3.88;;;0.60;;
71975;SDS011;68326;52.124;5.424;2023-07-30T01:21:32;6.30;;;1.05;;
71975;SDS011;68326;52.124;5.424;2023-07-30T01:24:03;2.47;;;0.90;;
71975;SDS011;68326;52.124;5.424;2023-07-30T01:26:50;6.57;;;0.98;;
71975;SDS011;68326;52.124;5.424;2023-07-30T01:29:22;4.32;;;1.10;;
71975;SDS011;68326;52.124;5.424;2023-07-30T01:31:56;3.58;;;0.85;;
71975;SDS011;68326;52.124;5.424;2023-07-30T01:34:27;7.40;;;1.00;;
71975;SDS011;68326;52.124;5.424;2023-07-30T01:36:54;7.67;;;1.07;;
71975;SDS011;68326;52.124;5.424;2023-07-30T01:39:23;2.47;;;0.88;;
71975;SDS011;68326;52.124;5.424;2023-07-30T01:41:53;5.32;;;1.25;;
71975;SDS011;68326;52.124;5.424;2023-07-30T01:44:22;6.35;;;1.00;;
71975;SDS011;68326;52.124;5.424;2023-07-30T01:46:49;8.90;;;1.35;;
71975;SDS011;68326;52.124;5.424;2023-07-30T01:49:15;5.50;;;1.17;;
71975;SDS011;68326;52.124;5.424;2023-07-30T01:51:42;4.88;;;0.70;;
71975;SDS011;68326;52.124;5.424;2023-07-30T01:54:08;8.23;;;1.25;;
71975;SDS011;68326;52.124;5.424;2023-07-30T01:56:35;7.72;;;1.48;;
71975;SDS011;68326;52.124;5.424;2023-07-30T01:59:01;7.38;;;1.42;;
71975;SDS011;68326;52.124;5.424;2023-07-30T02:01:28;4.70;;;0.90;;
71975;SDS011;68326;52.124;5.424;2023-07-30T02:03:55;5.72;;;0.95;;
71975;SDS011;68326;52.124;5.424;2023-07-30T02:06:21;7.72;;;1.10;;
71975;SDS011;68326;52.124;5.424;2023-07-30T02:08:48;8.27;;;1.30;;
71975;SDS011;68326;52.124;5.424;2023-07-30T02:11:14;7.00;;;1.10;;
71975;SDS011;68326;52.124;5.424;2023-07-30T02:13:41;8.33;;;1.13;;
71975;SDS011;68326;52.124;5.424;2023-07-30T02:16:08;7.30;;;1.45;;
71975;SDS011;68326;52.124;5.424;2023-07-30T02:18:35;5.80;;;0.90;;
71975;SDS011;68326;52.124;5.424;2023-07-30T02:21:01;6.82;;;1.13;;
71975;SDS011;68326;52.124;5.424;2023-07-30T02:23:28;6.97;;;1.13;;
71975;SDS011;68326;52.124;5.424;2023-07-30T02:25:54;6.93;;;1.27;;
71975;SDS011;68326;52.124;5.424;2023-07-30T02:28:21;7.97;;;1.23;;
71975;SDS011;68326;52.124;5.424;2023-07-30T02:30:47;4.13;;;1.30;;
71975;SDS011;68326;52.124;5.424;2023-07-30T02:33:14;8.10;;;1.20;;
71975;SDS011;68326;52.124;5.424;2023-07-30T02:35:42;7.90;;;1.50;;
71975;SDS011;68326;52.124;5.424;2023-07-30T02:38:09;8.50;;;1.70;;
71975;SDS011;68326;52.124;5.424;2023-07-30T02:40:36;5.38;;;1.50;;
71975;SDS011;68326;52.124;5.424;2023-07-30T02:43:02;6.22;;;1.05;;
71975;SDS011;68326;52.124;5.424;2023-07-30T02:45:29;7.00;;;1.45;;
71975;SDS011;68326;52.124;5.424;2023-07-30T02:47:56;4.68;;;1.02;;
71975;SDS011;68326;52.124;5.424;2023-07-30T02:50:22;7.87;;;1.50;;
71975;SDS011;68326;52.124;5.424;2023-07-30T02:52:49;7.22;;;1.50;;
71975;SDS011;68326;52.124;5.424;2023-07-30T02:55:15;11.50;;;1.50;;
71975;SDS011;68326;52.124;5.424;2023-07-30T02:57:42;4.80;;;1.10;;
71975;SDS011;68326;52.124;5.424;2023-07-30T03:00:08;6.40;;;1.35;;
71975;SDS011;68326;52.124;5.424;2023-07-30T03:02:35;11.50;;;1.50;;
71975;SDS011;68326;52.124;5.424;2023-07-30T03:05:02;10.52;;;1.60;;
71975;SDS011;68326;52.124;5.424;2023-07-30T03:07:28;9.40;;;1.42;;
71975;SDS011;68326;52.124;5.424;2023-07-30T03:09:55;8.48;;;1.50;;
71975;SDS011;68326;52.124;5.424;2023-07-30T03:12:21;10.25;;;1.50;;
71975;SDS011;68326;52.124;5.424;2023-07-30T03:14:48;8.07;;;1.80;;
71975;SDS011;68326;52.124;5.424;2023-07-30T03:17:14;7.75;;;1.67;;
71975;SDS011;68326;52.124;5.424;2023-07-30T03:19:41;12.02;;;1.63;;
71975;SDS011;68326;52.124;5.424;2023-07-30T03:22:07;8.00;;;1.48;;
71975;SDS011;68326;52.124;5.424;2023-07-30T03:24:34;9.68;;;1.63;;
71975;SDS011;68326;52.124;5.424;2023-07-30T03:27:00;9.50;;;1.70;;
71975;SDS011;68326;52.124;5.424;2023-07-30T03:29:27;11.77;;;2.08;;
71975;SDS011;68326;52.124;5.424;2023-07-30T03:31:53;8.52;;;2.10;;
71975;SDS011;68326;52.124;5.424;2023-07-30T03:34:20;17.52;;;2.40;;
71975;SDS011;68326;52.124;5.424;2023-07-30T03:36:46;8.20;;;2.17;;
71975;SDS011;68326;52.124;5.424;2023-07-30T03:39:13;16.23;;;2.47;;
71975;SDS011;68326;52.124;5.424;2023-07-30T03:41:39;14.65;;;2.30;;
71975;SDS011;68326;52.124;5.424;2023-07-30T03:44:06;13.43;;;2.45;;
71975;SDS011;68326;52.124;5.424;2023-07-30T03:46:32;10.30;;;1.63;;
71975;SDS011;68326;52.124;5.424;2023-07-30T03:48:59;14.10;;;2.40;;
71975;SDS011;68326;52.124;5.424;2023-07-30T03:51:27;8.60;;;1.70;;
71975;SDS011;68326;52.124;5.424;2023-07-30T03:53:53;15.73;;;1.90;;
71975;SDS011;68326;52.124;5.424;2023-07-30T03:56:20;12.02;;;2.38;;
71975;SDS011;68326;52.124;5.424;2023-07-30T03:58:46;9.82;;;2.08;;
71975;SDS011;68326;52.124;5.424;2023-07-30T04:01:13;11.32;;;1.95;;
71975;SDS011;68326;52.124;5.424;2023-07-30T04:03:40;10.23;;;2.30;;
71975;SDS011;68326;52.124;5.424;2023-07-30T04:06:06;11.18;;;2.47;;
71975;SDS011;68326;52.124;5.424;2023-07-30T04:08:33;11.40;;;2.15;;
71975;SDS011;68326;52.124;5.424;2023-07-30T04:10:59;13.70;;;2.85;;
71975;SDS011;68326;52.124;5.424;2023-07-30T04:13:26;13.10;;;2.42;;
71975;SDS011;68326;52.124;5.424;2023-07-30T04:15:52;11.47;;;2.10;;
71975;SDS011;68326;52.124;5.424;2023-07-30T04:18:19;11.70;;;1.98;;
71975;SDS011;68326;52.124;5.424;2023-07-30T04:20:46;14.23;;;2.47;;
71975;SDS011;68326;52.124;5.424;2023-07-30T04:23:13;16.25;;;2.50;;
71975;SDS011;68326;52.124;5.424;2023-07-30T04:25:40;16.65;;;2.30;;
71975;SDS011;68326;52.124;5.424;2023-07-30T04:28:06;15.80;;;2.50;;
71975;SDS011;68326;52.124;5.424;2023-07-30T04:30:33;13.73;;;2.75;;
71975;SDS011;68326;52.124;5.424;2023-07-30T04:32:59;15.65;;;2.65;;
71975;SDS011;68326;52.124;5.424;2023-07-30T04:35:26;19.98;;;3.20;;
71975;SDS011;68326;52.124;5.424;2023-07-30T04:37:53;10.65;;;2.53;;
71975;SDS011;68326;52.124;5.424;2023-07-30T04:40:19;14.93;;;2.83;;
71975;SDS011;68326;52.124;5.424;2023-07-30T04:42:46;14.80;;;2.88;;
71975;SDS011;68326;52.124;5.424;2023-07-30T04:45:12;19.02;;;2.97;;
71975;SDS011;68326;52.124;5.424;2023-07-30T04:47:39;14.40;;;2.63;;
71975;SDS011;68326;52.124;5.424;2023-07-30T04:50:05;13.75;;;2.90;;
71975;SDS011;68326;52.124;5.424;2023-07-30T04:52:32;13.60;;;3.10;;
71975;SDS011;68326;52.124;5.424;2023-07-30T04:54:59;18.20;;;3.50;;
71975;SDS011;68326;52.124;5.424;2023-07-30T04:57:25;18.17;;;2.85;;
71975;SDS011;68326;52.124;5.424;2023-07-30T04:59:52;12.98;;;2.60;;
71975;SDS011;68326;52.124;5.424;2023-07-30T05:02:19;14.05;;;3.00;;
71975;SDS011;68326;52.124;5.424;2023-07-30T05:04:45;13.53;;;3.40;;
71975;SDS011;68326;52.124;5.424;2023-07-30T05:07:12;11.25;;;3.10;;
71975;SDS011;68326;52.124;5.424;2023-07-30T05:09:38;18.67;;;3.00;;
71975;SDS011;68326;52.124;5.424;2023-07-30T05:12:05;16.52;;;3.30;;
71975;SDS011;68326;52.124;5.424;2023-07-30T05:14:31;12.52;;;3.45;;
71975;SDS011;68326;52.124;5.424;2023-07-30T05:16:58;14.93;;;3.10;;
71975;SDS011;68326;52.124;5.424;2023-07-30T05:19:24;12.48;;;3.17;;
71975;SDS011;68326;52.124;5.424;2023-07-30T05:21:51;17.70;;;3.55;;
71975;SDS011;68326;52.124;5.424;2023-07-30T05:24:17;17.08;;;3.85;;
71975;SDS011;68326;52.124;5.424;2023-07-30T05:26:44;12.90;;;3.22;;
71975;SDS011;68326;52.124;5.424;2023-07-30T05:29:10;18.33;;;3.57;;
71975;SDS011;68326;52.124;5.424;2023-07-30T05:31:37;21.08;;;3.83;;
71975;SDS011;68326;52.124;5.424;2023-07-30T05:34:03;20.55;;;3.75;;
71975;SDS011;68326;52.124;5.424;2023-07-30T05:36:31;17.40;;;4.15;;
71975;SDS011;68326;52.124;5.424;2023-07-30T05:38:57;14.02;;;3.92;;
71975;SDS011;68326;52.124;5.424;2023-07-30T05:41:24;17.73;;;4.10;;
71975;SDS011;68326;52.124;5.424;2023-07-30T05:43:50;14.30;;;3.85;;
71975;SDS011;68326;52.124;5.424;2023-07-30T05:46:17;19.20;;;3.97;;
71975;SDS011;68326;52.124;5.424;2023-07-30T05:48:43;17.27;;;4.18;;
71975;SDS011;68326;52.124;5.424;2023-07-30T05:51:10;17.98;;;4.03;;
71975;SDS011;68326;52.124;5.424;2023-07-30T05:53:36;13.33;;;4.20;;
71975;SDS011;68326;52.124;5.424;2023-07-30T05:56:03;18.10;;;4.30;;
71975;SDS011;68326;52.124;5.424;2023-07-30T05:58:30;15.57;;;4.22;;
71975;SDS011;68326;52.124;5.424;2023-07-30T06:00:57;13.85;;;4.60;;
71975;SDS011;68326;52.124;5.424;2023-07-30T06:03:23;15.63;;;4.70;;
71975;SDS011;68326;52.124;5.424;2023-07-30T06:05:50;12.67;;;4.23;;
71975;SDS011;68326;52.124;5.424;2023-07-30T06:08:16;13.93;;;4.43;;
71975;SDS011;68326;52.124;5.424;2023-07-30T06:10:43;18.10;;;4.43;;
71975;SDS011;68326;52.124;5.424;2023-07-30T06:13:09;16.98;;;4.13;;
71975;SDS011;68326;52.124;5.424;2023-07-30T06:15:36;18.70;;;5.05;;
71975;SDS011;68326;52.124;5.424;2023-07-30T06:18:03;16.40;;;4.87;;
71975;SDS011;68326;52.124;5.424;2023-07-30T06:20:29;18.80;;;4.78;;
71975;SDS011;68326;52.124;5.424;2023-07-30T06:22:56;14.65;;;4.90;;
71975;SDS011;68326;52.124;5.424;2023-07-30T06:25:23;15.73;;;5.10;;
71975;SDS011;68326;52.124;5.424;2023-07-30T06:27:49;16.38;;;4.80;;
71975;SDS011;68326;52.124;5.424;2023-07-30T06:30:17;16.53;;;5.10;;
71975;SDS011;68326;52.124;5.424;2023-07-30T06:32:43;12.98;;;4.47;;
71975;SDS011;68326;52.124;5.424;2023-07-30T06:35:10;17.63;;;4.78;;
71975;SDS011;68326;52.124;5.424;2023-07-30T06:37:36;19.13;;;5.25;;
71975;SDS011;68326;52.124;5.424;2023-07-30T06:40:03;15.82;;;5.57;;
71975;SDS011;68326;52.124;5.424;2023-07-30T06:42:32;14.53;;;4.97;;
71975;SDS011;68326;52.124;5.424;2023-07-30T06:44:59;23.65;;;5.30;;
71975;SDS011;68326;52.124;5.424;2023-07-30T06:47:26;17.17;;;4.80;;
71975;SDS011;68326;52.124;5.424;2023-07-30T06:49:52;13.23;;;5.05;;
71975;SDS011;68326;52.124;5.424;2023-07-30T06:52:19;13.68;;;5.70;;
71975;SDS011;68326;52.124;5.424;2023-07-30T06:54:46;14.50;;;4.73;;
71975;SDS011;68326;52.124;5.424;2023-07-30T06:57:13;16.67;;;5.07;;
71975;SDS011;68326;52.124;5.424;2023-07-30T06:59:39;15.68;;;4.72;;
71975;SDS011;68326;52.124;5.424;2023-07-30T07:02:06;15.55;;;4.22;;
71975;SDS011;68326;52.124;5.424;2023-07-30T07:04:32;16.30;;;4.15;;
71975;SDS011;68326;52.124;5.424;2023-07-30T07:06:59;13.93;;;4.10;;
71975;SDS011;68326;52.124;5.424;2023-07-30T07:09:27;15.93;;;4.28;;
71975;SDS011;68326;52.124;5.424;2023-07-30T07:11:53;14.88;;;3.60;;
71975;SDS011;68326;52.124;5.424;2023-07-30T07:14:20;13.88;;;3.97;;
71975;SDS011;68326;52.124;5.424;2023-07-30T07:16:47;11.43;;;4.03;;
71975;SDS011;68326;52.124;5.424;2023-07-30T07:19:15;16.57;;;3.57;;
71975;SDS011;68326;52.124;5.424;2023-07-30T07:21:41;17.25;;;4.15;;
71975;SDS011;68326;52.124;5.424;2023-07-30T07:24:08;14.15;;;3.78;;
71975;SDS011;68326;52.124;5.424;2023-07-30T07:26:34;12.23;;;3.35;;
71975;SDS011;68326;52.124;5.424;2023-07-30T07:29:01;10.55;;;3.10;;
71975;SDS011;68326;52.124;5.424;2023-07-30T07:31:27;15.33;;;4.30;;
71975;SDS011;68326;52.124;5.424;2023-07-30T07:33:54;14.02;;;3.20;;
71975;SDS011;68326;52.124;5.424;2023-07-30T07:36:21;19.48;;;3.58;;
71975;SDS011;68326;52.124;5.424;2023-07-30T07:38:48;17.83;;;2.95;;
71975;SDS011;68326;52.124;5.424;2023-07-30T07:41:15;8.88;;;2.70;;
71975;SDS011;68326;52.124;5.424;2023-07-30T07:43:43;13.67;;;2.97;;
71975;SDS011;68326;52.124;5.424;2023-07-30T07:46:10;15.60;;;3.03;;
71975;SDS011;68326;52.124;5.424;2023-07-30T07:48:42;13.43;;;2.70;;
71975;SDS011;68326;52.124;5.424;2023-07-30T07:51:10;7.57;;;2.67;;
71975;SDS011;68326;52.124;5.424;2023-07-30T07:53:37;9.80;;;2.70;;
71975;SDS011;68326;52.124;5.424;2023-07-30T07:56:05;8.57;;;2.77;;
71975;SDS011;68326;52.124;5.424;2023-07-30T07:58:31;12.30;;;2.65;;
71975;SDS011;68326;52.124;5.424;2023-07-30T08:00:59;13.27;;;2.78;;
71975;SDS011;68326;52.124;5.424;2023-07-30T08:03:25;9.48;;;2.50;;
71975;SDS011;68326;52.124;5.424;2023-07-30T08:05:55;12.27;;;2.65;;
71975;SDS011;68326;52.124;5.424;2023-07-30T08:08:23;10.43;;;2.30;;
71975;SDS011;68326;52.124;5.424;2023-07-30T08:10:52;13.80;;;3.03;;
71975;SDS011;68326;52.124;5.424;2023-07-30T08:13:19;10.40;;;1.95;;
71975;SDS011;68326;52.124;5.424;2023-07-30T08:15:46;9.27;;;2.45;;
71975;SDS011;68326;52.124;5.424;2023-07-30T08:18:12;12.23;;;2.88;;
71975;SDS011;68326;52.124;5.424;2023-07-30T08:20:39;11.90;;;2.67;;
71975;SDS011;68326;52.124;5.424;2023-07-30T08:23:05;12.60;;;3.15;;
71975;SDS011;68326;52.124;5.424;2023-07-30T08:25:32;12.90;;;2.75;;
71975;SDS011;68326;52.124;5.424;2023-07-30T08:27:59;7.68;;;2.30;;
71975;SDS011;68326;52.124;5.424;2023-07-30T08:30:25;11.18;;;2.40;;
71975;SDS011;68326;52.124;5.424;2023-07-30T08:32:52;8.07;;;2.37;;
71975;SDS011;68326;52.124;5.424;2023-07-30T08:35:18;10.65;;;2.38;;
71975;SDS011;68326;52.124;5.424;2023-07-30T08:37:45;9.40;;;2.50;;
71975;SDS011;68326;52.124;5.424;2023-07-30T08:40:11;8.68;;;2.60;;
71975;SDS011;68326;52.124;5.424;2023-07-30T08:42:40;9.45;;;2.30;;
71975;SDS011;68326;52.124;5.424;2023-07-30T08:45:07;10.27;;;2.57;;
71975;SDS011;68326;52.124;5.424;2023-07-30T08:47:39;9.00;;;1.88;;
71975;SDS011;68326;52.124;5.424;2023-07-30T08:50:07;9.98;;;1.92;;
71975;SDS011;68326;52.124;5.424;2023-07-30T08:52:33;10.95;;;2.33;;
71975;SDS011;68326;52.124;5.424;2023-07-30T08:55:02;10.55;;;2.17;;
71975;SDS011;68326;52.124;5.424;2023-07-30T08:57:29;7.07;;;1.90;;
71975;SDS011;68326;52.124;5.424;2023-07-30T09:02:37;8.68;;;2.05;;
71975;SDS011;68326;52.124;5.424;2023-07-30T09:05:05;8.98;;;2.30;;
71975;SDS011;68326;52.124;5.424;2023-07-30T09:07:32;10.55;;;2.00;;
71975;SDS011;68326;52.124;5.424;2023-07-30T09:09:59;9.17;;;1.67;;
71975;SDS011;68326;52.124;5.424;2023-07-30T09:12:32;8.75;;;2.03;;
71975;SDS011;68326;52.124;5.424;2023-07-30T09:15:00;11.65;;;2.33;;
71975;SDS011;68326;52.124;5.424;2023-07-30T09:17:28;8.75;;;2.05;;
71975;SDS011;68326;52.124;5.424;2023-07-30T09:19:54;7.13;;;1.45;;
71975;SDS011;68326;52.124;5.424;2023-07-30T09:22:27;7.17;;;1.63;;
71975;SDS011;68326;52.124;5.424;2023-07-30T09:24:56;8.05;;;1.88;;
71975;SDS011;68326;52.124;5.424;2023-07-30T09:27:24;6.53;;;2.15;;
71975;SDS011;68326;52.124;5.424;2023-07-30T09:29:53;11.10;;;2.35;;
71975;SDS011;68326;52.124;5.424;2023-07-30T09:32:24;10.80;;;1.80;;
71975;SDS011;68326;52.124;5.424;2023-07-30T09:34:52;9.83;;;1.60;;
71975;SDS011;68326;52.124;5.424;2023-07-30T09:37:18;7.07;;;1.35;;
71975;SDS011;68326;52.124;5.424;2023-07-30T09:39:47;10.38;;;2.25;;
71975;SDS011;68326;52.124;5.424;2023-07-30T09:42:14;8.70;;;2.00;;
71975;SDS011;68326;52.124;5.424;2023-07-30T09:44:41;6.90;;;1.48;;
71975;SDS011;68326;52.124;5.424;2023-07-30T09:47:08;7.33;;;1.83;;
71975;SDS011;68326;52.124;5.424;2023-07-30T09:49:38;10.85;;;1.50;;
71975;SDS011;68326;52.124;5.424;2023-07-30T09:52:05;8.10;;;1.40;;
71975;SDS011;68326;52.124;5.424;2023-07-30T09:54:32;10.07;;;1.50;;
71975;SDS011;68326;52.124;5.424;2023-07-30T09:56:59;8.27;;;1.63;;
71975;SDS011;68326;52.124;5.424;2023-07-30T09:59:25;6.90;;;1.40;;
71975;SDS011;68326;52.124;5.424;2023-07-30T10:01:53;5.85;;;1.02;;
71975;SDS011;68326;52.124;5.424;2023-07-30T10:04:22;4.53;;;1.00;;
71975;SDS011;68326;52.124;5.424;2023-07-30T10:06:51;5.82;;;1.08;;
71975;SDS011;68326;52.124;5.424;2023-07-30T10:09:21;5.78;;;0.88;;
71975;SDS011;68326;52.124;5.424;2023-07-30T10:11:51;7.80;;;0.90;;
71975;SDS011;68326;52.124;5.424;2023-07-30T10:14:21;6.40;;;0.80;;
71975;SDS011;68326;52.124;5.424;2023-07-30T10:16:50;6.22;;;0.80;;
71975;SDS011;68326;52.124;5.424;2023-07-30T10:19:27;5.38;;;0.75;;
71975;SDS011;68326;52.124;5.424;2023-07-30T10:22:02;4.63;;;0.98;;
71975;SDS011;68326;52.124;5.424;2023-07-30T10:24:57;4.60;;;1.00;;
71975;SDS011;68326;52.124;5.424;2023-07-30T10:27:26;5.13;;;0.57;;
71975;SDS011;68326;52.124;5.424;2023-07-30T10:30:08;1.33;;;0.40;;
71975;SDS011;68326;52.124;5.424;2023-07-30T10:32:42;6.72;;;0.93;;
71975;SDS011;68326;52.124;5.424;2023-07-30T10:38:17;6.57;;;0.70;;
71975;SDS011;68326;52.124;5.424;2023-07-30T10:41:07;4.68;;;0.52;;
71975;SDS011;68326;52.124;5.424;2023-07-30T10:43:49;3.78;;;0.70;;
71975;SDS011;68326;52.124;5.424;2023-07-30T10:46:19;2.25;;;0.50;;
71975;SDS011;68326;52.124;5.424;2023-07-30T10:48:47;4.30;;;0.65;;
71975;SDS011;68326;52.124;5.424;2023-07-30T10:51:15;4.10;;;0.60;;
71975;SDS011;68326;52.124;5.424;2023-07-30T10:53:44;3.22;;;0.57;;
71975;SDS011;68326;52.124;5.424;2023-07-30T10:56:20;3.25;;;0.88;;
71975;SDS011;68326;52.124;5.424;2023-07-30T10:58:50;4.13;;;0.50;;
71975;SDS011;68326;52.124;5.424;2023-07-30T11:01:18;4.78;;;0.50;;
71975;SDS011;68326;52.124;5.424;2023-07-30T11:03:48;2.90;;;0.40;;
71975;SDS011;68326;52.124;5.424;2023-07-30T11:06:20;4.07;;;0.40;;
71975;SDS011;68326;52.124;5.424;2023-07-30T11:08:51;5.10;;;0.82;;
71975;SDS011;68326;52.124;5.424;2023-07-30T11:11:17;3.35;;;0.68;;
71975;SDS011;68326;52.124;5.424;2023-07-30T11:13:45;3.97;;;0.50;;
71975;SDS011;68326;52.124;5.424;2023-07-30T11:16:13;3.13;;;0.40;;
71975;SDS011;68326;52.124;5.424;2023-07-30T11:18:40;4.75;;;0.40;;
71975;SDS011;68326;52.124;5.424;2023-07-30T11:21:09;2.83;;;0.55;;
71975;SDS011;68326;52.124;5.424;2023-07-30T11:23:37;3.72;;;1.05;;
71975;SDS011;68326;52.124;5.424;2023-07-30T11:26:06;3.65;;;0.43;;
71975;SDS011;68326;52.124;5.424;2023-07-30T11:28:35;1.90;;;0.63;;
71975;SDS011;68326;52.124;5.424;2023-07-30T11:31:08;2.60;;;0.40;;
71975;SDS011;68326;52.124;5.424;2023-07-30T11:33:36;3.15;;;0.43;;
71975;SDS011;68326;52.124;5.424;2023-07-30T11:36:06;4.50;;;0.70;;
71975;SDS011;68326;52.124;5.424;2023-07-30T11:38:34;2.55;;;0.40;;
71975;SDS011;68326;52.124;5.424;2023-07-30T11:41:01;6.93;;;0.57;;
71975;SDS011;68326;52.124;5.424;2023-07-30T11:43:28;4.47;;;0.47;;
71975;SDS011;68326;52.124;5.424;2023-07-30T11:46:08;2.47;;;0.30;;
71975;SDS011;68326;52.124;5.424;2023-07-30T11:48:40;4.55;;;0.77;;
71975;SDS011;68326;52.124;5.424;2023-07-30T11:51:17;3.60;;;0.43;;
71975;SDS011;68326;52.124;5.424;2023-07-30T11:56:28;2.15;;;0.40;;
71975;SDS011;68326;52.124;5.424;2023-07-30T12:01:32;4.72;;;0.47;;
71975;SDS011;68326;52.124;5.424;2023-07-30T12:04:02;4.35;;;0.70;;
71975;SDS011;68326;52.124;5.424;2023-07-30T12:09:17;5.80;;;0.60;;
71975;SDS011;68326;52.124;5.424;2023-07-30T12:11:46;3.65;;;0.43;;
71975;SDS011;68326;52.124;5.424;2023-07-30T12:14:14;3.15;;;0.60;;
71975;SDS011;68326;52.124;5.424;2023-07-30T12:16:41;2.83;;;0.50;;
71975;SDS011;68326;52.124;5.424;2023-07-30T12:19:08;3.23;;;0.57;;
71975;SDS011;68326;52.124;5.424;2023-07-30T12:21:35;2.90;;;0.30;;
71975;SDS011;68326;52.124;5.424;2023-07-30T12:24:04;4.53;;;0.45;;
71975;SDS011;68326;52.124;5.424;2023-07-30T12:26:31;2.80;;;0.30;;
71975;SDS011;68326;52.124;5.424;2023-07-30T12:28:58;5.57;;;0.50;;
71975;SDS011;68326;52.124;5.424;2023-07-30T12:31:24;6.67;;;0.60;;
71975;SDS011;68326;52.124;5.424;2023-07-30T12:33:51;3.72;;;0.50;;
71975;SDS011;68326;52.124;5.424;2023-07-30T12:36:17;3.10;;;0.40;;
71975;SDS011;68326;52.124;5.424;2023-07-30T12:38:44;2.28;;;0.30;;
71975;SDS011;68326;52.124;5.424;2023-07-30T12:41:12;2.50;;;0.30;;
71975;SDS011;68326;52.124;5.424;2023-07-30T12:43:39;1.63;;;0.20;;
71975;SDS011;68326;52.124;5.424;2023-07-30T12:46:05;1.70;;;0.20;;
71975;SDS011;68326;52.124;5.424;2023-07-30T12:48:32;2.10;;;0.40;;
71975;SDS011;68326;52.124;5.424;2023-07-30T12:50:59;2.38;;;0.25;;
71975;SDS011;68326;52.124;5.424;2023-07-30T12:53:25;2.20;;;0.52;;
71975;SDS011;68326;52.124;5.424;2023-07-30T12:55:52;4.67;;;0.57;;
71975;SDS011;68326;52.124;5.424;2023-07-30T12:58:19;2.25;;;0.43;;
71975;SDS011;68326;52.124;5.424;2023-07-30T13:00:45;2.60;;;0.30;;
71975;SDS011;68326;52.124;5.424;2023-07-30T13:03:12;2.50;;;0.35;;
71975;SDS011;68326;52.124;5.424;2023-07-30T13:05:38;2.13;;;0.60;;
71975;SDS011;68326;52.124;5.424;2023-07-30T13:08:05;3.43;;;0.40;;
71975;SDS011;68326;52.124;5.424;2023-07-30T13:10:31;1.70;;;0.30;;
71975;SDS011;68326;52.124;5.424;2023-07-30T13:12:58;1.90;;;0.30;;
71975;SDS011;68326;52.124;5.424;2023-07-30T13:15:24;6.53;;;0.50;;
71975;SDS011;68326;52.124;5.424;2023-07-30T13:17:51;1.17;;;0.30;;
71975;SDS011;68326;52.124;5.424;2023-07-30T13:20:17;2.43;;;0.30;;
71975;SDS011;68326;52.124;5.424;2023-07-30T13:22:45;2.88;;;0.30;;
71975;SDS011;68326;52.124;5.424;2023-07-30T13:25:12;0.98;;;0.30;;
71975;SDS011;68326;52.124;5.424;2023-07-30T13:27:38;2.28;;;0.47;;
71975;SDS011;68326;52.124;5.424;2023-07-30T13:30:05;2.25;;;0.32;;
71975;SDS011;68326;52.124;5.424;2023-07-30T13:32:32;2.30;;;0.40;;
71975;SDS011;68326;52.124;5.424;2023-07-30T13:34:59;1.38;;;0.20;;
71975;SDS011;68326;52.124;5.424;2023-07-30T13:37:25;2.83;;;0.30;;
71975;SDS011;68326;52.124;5.424;2023-07-30T13:39:52;3.38;;;0.30;;
71975;SDS011;68326;52.124;5.424;2023-07-30T13:42:18;2.13;;;0.50;;
71975;SDS011;68326;52.124;5.424;2023-07-30T13:44:45;5.23;;;0.40;;
71975;SDS011;68326;52.124;5.424;2023-07-30T13:47:11;1.25;;;0.30;;
71975;SDS011;68326;52.124;5.424;2023-07-30T13:49:40;3.17;;;0.40;;
71975;SDS011;68326;52.124;5.424;2023-07-30T13:52:07;3.28;;;0.30;;
71975;SDS011;68326;52.124;5.424;2023-07-30T13:54:33;7.43;;;1.10;;
71975;SDS011;68326;52.124;5.424;2023-07-30T13:57:02;2.53;;;0.40;;
71975;SDS011;68326;52.124;5.424;2023-07-30T13:59:29;1.70;;;0.30;;
71975;SDS011;68326;52.124;5.424;2023-07-30T14:01:56;3.00;;;0.45;;
71975;SDS011;68326;52.124;5.424;2023-07-30T14:04:23;4.18;;;0.50;;
71975;SDS011;68326;52.124;5.424;2023-07-30T14:06:49;2.58;;;0.43;;
71975;SDS011;68326;52.124;5.424;2023-07-30T14:09:15;3.20;;;0.30;;
71975;SDS011;68326;52.124;5.424;2023-07-30T14:11:42;2.35;;;0.38;;
71975;SDS011;68326;52.124;5.424;2023-07-30T14:14:11;3.17;;;0.47;;
71975;SDS011;68326;52.124;5.424;2023-07-30T14:16:38;2.55;;;0.40;;
71975;SDS011;68326;52.124;5.424;2023-07-30T14:19:05;4.28;;;0.40;;
71975;SDS011;68326;52.124;5.424;2023-07-30T14:21:31;3.47;;;0.70;;
71975;SDS011;68326;52.124;5.424;2023-07-30T14:23:58;3.78;;;0.47;;
71975;SDS011;68326;52.124;5.424;2023-07-30T14:26:24;3.67;;;0.70;;
71975;SDS011;68326;52.124;5.424;2023-07-30T14:28:51;6.07;;;0.60;;
71975;SDS011;68326;52.124;5.424;2023-07-30T14:31:17;6.05;;;0.52;;
71975;SDS011;68326;52.124;5.424;2023-07-30T14:33:44;6.23;;;0.53;;
71975;SDS011;68326;52.124;5.424;2023-07-30T14:36:10;3.47;;;0.52;;
71975;SDS011;68326;52.124;5.424;2023-07-30T14:38:38;2.40;;;0.38;;
71975;SDS011;68326;52.124;5.424;2023-07-30T14:41:04;6.78;;;0.30;;
71975;SDS011;68326;52.124;5.424;2023-07-30T14:43:32;4.05;;;0.60;;
71975;SDS011;68326;52.124;5.424;2023-07-30T14:45:58;5.43;;;0.43;;
71975;SDS011;68326;52.124;5.424;2023-07-30T14:48:25;4.22;;;0.80;;
71975;SDS011;68326;52.124;5.424;2023-07-30T14:50:51;3.95;;;0.50;;
71975;SDS011;68326;52.124;5.424;2023-07-30T14:53:18;4.03;;;0.85;;
71975;SDS011;68326;52.124;5.424;2023-07-30T14:55:44;3.25;;;0.70;;
71975;SDS011;68326;52.124;5.424;2023-07-30T14:58:11;5.00;;;0.60;;